sensor_id;sensor_type;location;lat;lon;timestamp;pressure;altitude;pressure_sealevel;temperature
19568;BMP280;9930;49.240;8.548;2023-07-31T00:01:48;100439.84;;;23.22
19568;BMP280;9930;49.240;8.548;2023-07-31T00:04:16;100435.63;;;23.15
19568;BMP280;9930;49.240;8.548;2023-07-31T00:06:46;100459.78;;;23.23
19568;BMP280;9930;49.240;8.548;2023-07-31T00:09:20;100462.41;;;23.21
19568;BMP280;9930;49.240;8.548;2023-07-31T00:11:46;100465.03;;;23.20
19568;BMP280;9930;49.240;8.548;2023-07-31T00:14:17;100463.28;;;23.20
19568;BMP280;9930;49.240;8.548;2023-07-31T00:16:46;100465.06;;;23.18
19568;BMP280;9930;49.240;8.548;2023-07-31T00:19:16;100458.97;;;23.19
19568;BMP280;9930;49.240;8.548;2023-07-31T00:21:42;100452.03;;;23.18
19568;BMP280;9930;49.240;8.548;2023-07-31T00:24:11;100447.69;;;23.19
19568;BMP280;9930;49.240;8.548;2023-07-31T00:26:37;100444.22;;;23.18
19568;BMP280;9930;49.240;8.548;2023-07-31T00:29:05;100423.50;;;23.12
19568;BMP280;9930;49.240;8.548;2023-07-31T00:31:31;100435.63;;;23.13
19568;BMP280;9930;49.240;8.548;2023-07-31T00:33:56;100433.81;;;23.18
19568;BMP280;9930;49.240;8.548;2023-07-31T00:36:24;100433.03;;;23.12
19568;BMP280;9930;49.240;8.548;2023-07-31T00:38:50;100444.22;;;23.18
19568;BMP280;9930;49.240;8.548;2023-07-31T00:41:18;100441.66;;;23.17
19568;BMP280;9930;49.240;8.548;2023-07-31T00:43:44;100438.16;;;23.19
19568;BMP280;9930;49.240;8.548;2023-07-31T00:46:13;100430.38;;;23.16
19568;BMP280;9930;49.240;8.548;2023-07-31T00:48:41;100423.44;;;23.17
19568;BMP280;9930;49.240;8.548;2023-07-31T00:51:10;100426.03;;;23.18
19568;BMP280;9930;49.240;8.548;2023-07-31T00:53:37;100430.31;;;23.21
19568;BMP280;9930;49.240;8.548;2023-07-31T00:56:03;100425.97;;;23.23
19568;BMP280;9930;49.240;8.548;2023-07-31T00:58:34;100422.56;;;23.18
19568;BMP280;9930;49.240;8.548;2023-07-31T01:01:04;100428.56;;;23.23
19568;BMP280;9930;49.240;8.548;2023-07-31T01:03:30;100412.13;;;23.19
19568;BMP280;9930;49.240;8.548;2023-07-31T01:06:17;100403.47;;;23.17
19568;BMP280;9930;49.240;8.548;2023-07-31T01:09:01;100420.72;;;23.24
19568;BMP280;9930;49.240;8.548;2023-07-31T01:11:40;100405.22;;;23.17
19568;BMP280;9930;49.240;8.548;2023-07-31T01:14:09;100413.00;;;23.20
19568;BMP280;9930;49.240;8.548;2023-07-31T01:16:37;100408.66;;;23.19
19568;BMP280;9930;49.240;8.548;2023-07-31T01:19:02;100411.25;;;23.20
19568;BMP280;9930;49.240;8.548;2023-07-31T01:27:28;100413.94;;;23.14
19568;BMP280;9930;49.240;8.548;2023-07-31T01:30:37;100398.44;;;23.07
19568;BMP280;9930;49.240;8.548;2023-07-31T01:33:10;100412.22;;;23.13
19568;BMP280;9930;49.240;8.548;2023-07-31T01:35:37;100406.16;;;23.11
19568;BMP280;9930;49.240;8.548;2023-07-31T01:38:04;100403.59;;;23.10
19568;BMP280;9930;49.240;8.548;2023-07-31T01:40:33;100401.88;;;23.07
19568;BMP280;9930;49.240;8.548;2023-07-31T01:42:58;100391.59;;;23.00
19568;BMP280;9930;49.240;8.548;2023-07-31T01:45:24;100385.53;;;22.98
19568;BMP280;9930;49.240;8.548;2023-07-31T01:47:50;100382.09;;;22.97
19568;BMP280;9930;49.240;8.548;2023-07-31T01:50:16;100378.56;;;23.01
19568;BMP280;9930;49.240;8.548;2023-07-31T01:52:41;100374.34;;;22.92
19568;BMP280;9930;49.240;8.548;2023-07-31T01:55:10;100375.97;;;23.01
19568;BMP280;9930;49.240;8.548;2023-07-31T01:57:37;100386.38;;;23.01
19568;BMP280;9930;49.240;8.548;2023-07-31T02:00:05;100385.50;;;23.02
19568;BMP280;9930;49.240;8.548;2023-07-31T02:02:31;100364.78;;;22.94
19568;BMP280;9930;49.240;8.548;2023-07-31T02:04:57;100381.13;;;23.03
19568;BMP280;9930;49.240;8.548;2023-07-31T02:07:25;100374.25;;;23.00
19568;BMP280;9930;49.240;8.548;2023-07-31T02:09:50;100376.84;;;23.00
19568;BMP280;9930;49.240;8.548;2023-07-31T02:12:16;100362.22;;;22.91
19568;BMP280;9930;49.240;8.548;2023-07-31T02:14:43;100365.66;;;22.93
19568;BMP280;9930;49.240;8.548;2023-07-31T02:17:09;100365.59;;;22.98
19568;BMP280;9930;49.240;8.548;2023-07-31T02:19:37;100352.69;;;22.92
19568;BMP280;9930;49.240;8.548;2023-07-31T02:22:05;100360.44;;;22.95
19568;BMP280;9930;49.240;8.548;2023-07-31T02:24:30;100357.84;;;22.95
19568;BMP280;9930;49.240;8.548;2023-07-31T02:26:59;100345.78;;;22.88
19568;BMP280;9930;49.240;8.548;2023-07-31T02:29:28;100359.59;;;22.93
19568;BMP280;9930;49.240;8.548;2023-07-31T02:31:53;100360.50;;;22.90
19568;BMP280;9930;49.240;8.548;2023-07-31T02:34:19;100342.41;;;22.83
19568;BMP280;9930;49.240;8.548;2023-07-31T02:36:49;100348.41;;;22.88
19568;BMP280;9930;49.240;8.548;2023-07-31T02:39:15;100342.44;;;22.81
19568;BMP280;9930;49.240;8.548;2023-07-31T02:41:40;100357.09;;;22.85
19568;BMP280;9930;49.240;8.548;2023-07-31T02:44:09;100337.25;;;22.77
19568;BMP280;9930;49.240;8.548;2023-07-31T02:46:40;100349.38;;;22.81
19568;BMP280;9930;49.240;8.548;2023-07-31T02:49:13;100343.34;;;22.76
19568;BMP280;9930;49.240;8.548;2023-07-31T02:51:41;100338.16;;;22.74
19568;BMP280;9930;49.240;8.548;2023-07-31T02:54:07;100336.47;;;22.70
19568;BMP280;9930;49.240;8.548;2023-07-31T02:56:32;100344.22;;;22.75
19568;BMP280;9930;49.240;8.548;2023-07-31T02:58:58;100346.88;;;22.70
19568;BMP280;9930;49.240;8.548;2023-07-31T03:01:24;100349.47;;;22.70
19568;BMP280;9930;49.240;8.548;2023-07-31T03:03:49;100328.78;;;22.61
19568;BMP280;9930;49.240;8.548;2023-07-31T03:06:15;100344.44;;;22.58
19568;BMP280;9930;49.240;8.548;2023-07-31T03:08:41;100356.53;;;22.60
19568;BMP280;9930;49.240;8.548;2023-07-31T03:11:09;100353.97;;;22.56
19568;BMP280;9930;49.240;8.548;2023-07-31T03:13:34;100346.22;;;22.53
19568;BMP280;9930;49.240;8.548;2023-07-31T03:16:03;100343.66;;;22.50
19568;BMP280;9930;49.240;8.548;2023-07-31T03:18:28;100329.06;;;22.40
19568;BMP280;9930;49.240;8.548;2023-07-31T03:20:56;100351.53;;;22.44
19568;BMP280;9930;49.240;8.548;2023-07-31T03:23:26;100353.31;;;22.40
19568;BMP280;9930;49.240;8.548;2023-07-31T03:26:01;100354.22;;;22.36
19568;BMP280;9930;49.240;8.548;2023-07-31T03:28:32;100356.00;;;22.33
19568;BMP280;9930;49.240;8.548;2023-07-31T03:30:57;100355.16;;;22.30
19568;BMP280;9930;49.240;8.548;2023-07-31T03:33:23;100351.72;;;22.28
19568;BMP280;9930;49.240;8.548;2023-07-31T03:35:49;100347.47;;;22.21
19568;BMP280;9930;49.240;8.548;2023-07-31T03:38:15;100343.13;;;22.20
19568;BMP280;9930;49.240;8.548;2023-07-31T03:40:43;100344.00;;;22.22
19568;BMP280;9930;49.240;8.548;2023-07-31T03:43:13;100349.19;;;22.22
19568;BMP280;9930;49.240;8.548;2023-07-31T03:45:39;100350.06;;;22.20
19568;BMP280;9930;49.240;8.548;2023-07-31T03:48:05;100344.94;;;22.15
19568;BMP280;9930;49.240;8.548;2023-07-31T03:50:31;100351.84;;;22.16
19568;BMP280;9930;49.240;8.548;2023-07-31T03:52:56;100348.41;;;22.14
19568;BMP280;9930;49.240;8.548;2023-07-31T03:55:26;100338.03;;;22.13
19568;BMP280;9930;49.240;8.548;2023-07-31T03:57:54;100332.91;;;22.07
19568;BMP280;9930;49.240;8.548;2023-07-31T04:00:23;100336.34;;;22.07
19568;BMP280;9930;49.240;8.548;2023-07-31T04:02:48;100347.59;;;22.09
19568;BMP280;9930;49.240;8.548;2023-07-31T04:05:16;100332.91;;;22.07
19568;BMP280;9930;49.240;8.548;2023-07-31T04:07:43;100346.66;;;22.15
19568;BMP280;9930;49.240;8.548;2023-07-31T04:10:09;100352.72;;;22.15
19568;BMP280;9930;49.240;8.548;2023-07-31T04:12:35;100342.38;;;22.11
19568;BMP280;9930;49.240;8.548;2023-07-31T04:15:01;100352.69;;;22.18
19568;BMP280;9930;49.240;8.548;2023-07-31T04:17:29;100342.34;;;22.14
19568;BMP280;9930;49.240;8.548;2023-07-31T04:19:54;100353.53;;;22.22
19568;BMP280;9930;49.240;8.548;2023-07-31T04:22:25;100343.97;;;22.24
19568;BMP280;9930;49.240;8.548;2023-07-31T04:24:51;100355.22;;;22.26
19568;BMP280;9930;49.240;8.548;2023-07-31T04:27:16;100347.44;;;22.23
19568;BMP280;9930;49.240;8.548;2023-07-31T04:29:44;100353.44;;;22.29
19568;BMP280;9930;49.240;8.548;2023-07-31T04:32:13;100351.72;;;22.28
19568;BMP280;9930;49.240;8.548;2023-07-31T04:34:44;100354.25;;;22.33
19568;BMP280;9930;49.240;8.548;2023-07-31T04:37:10;100332.72;;;22.23
19568;BMP280;9930;49.240;8.548;2023-07-31T04:39:39;100345.56;;;22.36
19568;BMP280;9930;49.240;8.548;2023-07-31T04:42:05;100330.91;;;22.30
19568;BMP280;9930;49.240;8.548;2023-07-31T04:44:30;100334.34;;;22.32
19568;BMP280;9930;49.240;8.548;2023-07-31T04:47:00;100321.34;;;22.34
19568;BMP280;9930;49.240;8.548;2023-07-31T04:49:32;100316.09;;;22.37
19568;BMP280;9930;49.240;8.548;2023-07-31T04:51:58;100337.66;;;22.45
19568;BMP280;9930;49.240;8.548;2023-07-31T04:54:23;100328.19;;;22.41
19568;BMP280;9930;49.240;8.548;2023-07-31T04:56:49;100342.81;;;22.48
19568;BMP280;9930;49.240;8.548;2023-07-31T04:59:17;100344.53;;;22.50
19568;BMP280;9930;49.240;8.548;2023-07-31T05:01:43;100335.84;;;22.51
19568;BMP280;9930;49.240;8.548;2023-07-31T05:04:13;100323.78;;;22.47
19568;BMP280;9930;49.240;8.548;2023-07-31T05:06:40;100321.97;;;22.52
19568;BMP280;9930;49.240;8.548;2023-07-31T05:09:06;100334.94;;;22.54
19568;BMP280;9930;49.240;8.548;2023-07-31T05:11:35;100321.16;;;22.49
19568;BMP280;9930;49.240;8.548;2023-07-31T05:14:01;100324.63;;;22.48
19568;BMP280;9930;49.240;8.548;2023-07-31T05:16:29;100317.66;;;22.50
19568;BMP280;9930;49.240;8.548;2023-07-31T05:18:57;100333.16;;;22.59
19568;BMP280;9930;49.240;8.548;2023-07-31T05:21:27;100330.50;;;22.62
19568;BMP280;9930;49.240;8.548;2023-07-31T05:23:55;100327.88;;;22.65
19568;BMP280;9930;49.240;8.548;2023-07-31T05:26:23;100336.50;;;22.69
19568;BMP280;9930;49.240;8.548;2023-07-31T05:28:49;100337.34;;;22.71
19568;BMP280;9930;49.240;8.548;2023-07-31T05:31:19;100323.44;;;22.73
19568;BMP280;9930;49.240;8.548;2023-07-31T05:33:48;100319.94;;;22.74
19568;BMP280;9930;49.240;8.548;2023-07-31T05:36:16;100318.19;;;22.79
19568;BMP280;9930;49.240;8.548;2023-07-31T05:38:43;100319.03;;;22.80
19568;BMP280;9930;49.240;8.548;2023-07-31T05:41:14;100325.84;;;22.88
19568;BMP280;9930;49.240;8.548;2023-07-31T05:43:40;100325.84;;;22.90
19568;BMP280;9930;49.240;8.548;2023-07-31T05:46:06;100330.97;;;22.94
19568;BMP280;9930;49.240;8.548;2023-07-31T05:48:35;100321.44;;;22.93
19568;BMP280;9930;49.240;8.548;2023-07-31T05:51:01;100334.34;;;23.01
19568;BMP280;9930;49.240;8.548;2023-07-31T05:53:29;100330.91;;;22.99
19568;BMP280;9930;49.240;8.548;2023-07-31T05:55:55;100317.03;;;22.99
19568;BMP280;9930;49.240;8.548;2023-07-31T05:58:25;100317.00;;;23.00
19568;BMP280;9930;49.240;8.548;2023-07-31T06:00:50;100317.84;;;23.02
19568;BMP280;9930;49.240;8.548;2023-07-31T06:03:16;100320.44;;;23.04
19568;BMP280;9930;49.240;8.548;2023-07-31T06:05:43;100320.38;;;23.07
19568;BMP280;9930;49.240;8.548;2023-07-31T06:08:11;100329.78;;;23.15
19568;BMP280;9930;49.240;8.548;2023-07-31T06:10:39;100325.44;;;23.17
19568;BMP280;9930;49.240;8.548;2023-07-31T06:13:07;100317.69;;;23.13
19568;BMP280;9930;49.240;8.548;2023-07-31T06:15:33;100325.38;;;23.20
19568;BMP280;9930;49.240;8.548;2023-07-31T06:17:59;100324.44;;;23.24
19568;BMP280;9930;49.240;8.548;2023-07-31T06:22:58;100318.22;;;23.33
19568;BMP280;9930;49.240;8.548;2023-07-31T06:25:26;100311.31;;;23.32
19568;BMP280;9930;49.240;8.548;2023-07-31T06:27:52;100305.16;;;23.38
19568;BMP280;9930;49.240;8.548;2023-07-31T06:30:17;100324.88;;;23.51
19568;BMP280;9930;49.240;8.548;2023-07-31T06:32:44;100322.22;;;23.55
19568;BMP280;9930;49.240;8.548;2023-07-31T06:35:13;100321.38;;;23.55
19568;BMP280;9930;49.240;8.548;2023-07-31T06:37:41;100313.53;;;23.56
19568;BMP280;9930;49.240;8.548;2023-07-31T06:40:15;100326.38;;;23.67
19568;BMP280;9930;49.240;8.548;2023-07-31T06:42:44;100314.19;;;23.69
19568;BMP280;9930;49.240;8.548;2023-07-31T06:45:14;100308.16;;;23.66
19568;BMP280;9930;49.240;8.548;2023-07-31T06:47:43;100301.16;;;23.69
19568;BMP280;9930;49.240;8.548;2023-07-31T06:50:13;100302.75;;;23.78
19568;BMP280;9930;49.240;8.548;2023-07-31T06:52:41;100296.69;;;23.76
19568;BMP280;9930;49.240;8.548;2023-07-31T06:55:19;100291.44;;;23.79
19568;BMP280;9930;49.240;8.548;2023-07-31T06:57:54;100301.81;;;23.82
19568;BMP280;9930;49.240;8.548;2023-07-31T07:00:22;100307.81;;;23.85
19568;BMP280;9930;49.240;8.548;2023-07-31T07:02:49;100293.16;;;23.80
19568;BMP280;9930;49.240;8.548;2023-07-31T07:05:17;100306.88;;;23.89
19568;BMP280;9930;49.240;8.548;2023-07-31T07:07:45;100308.50;;;23.95
19568;BMP280;9930;49.240;8.548;2023-07-31T07:10:11;100287.72;;;23.92
19568;BMP280;9930;49.240;8.548;2023-07-31T07:12:37;100297.09;;;24.01
19568;BMP280;9930;49.240;8.548;2023-07-31T07:15:06;100296.19;;;24.03
19568;BMP280;9930;49.240;8.548;2023-07-31T07:17:34;100283.16;;;24.03
19568;BMP280;9930;49.240;8.548;2023-07-31T07:20:00;100304.69;;;24.13
19568;BMP280;9930;49.240;8.548;2023-07-31T07:22:27;100298.56;;;24.14
19568;BMP280;9930;49.240;8.548;2023-07-31T07:24:58;100301.97;;;24.17
19568;BMP280;9930;49.240;8.548;2023-07-31T07:27:24;100291.66;;;24.13
19568;BMP280;9930;49.240;8.548;2023-07-31T07:29:51;100300.16;;;24.22
19568;BMP280;9930;49.240;8.548;2023-07-31T07:32:18;100290.59;;;24.21
19568;BMP280;9930;49.240;8.548;2023-07-31T07:34:48;100300.00;;;24.32
19568;BMP280;9930;49.240;8.548;2023-07-31T07:37:14;100297.25;;;24.38
19568;BMP280;9930;49.240;8.548;2023-07-31T07:39:44;100299.78;;;24.42
19568;BMP280;9930;49.240;8.548;2023-07-31T07:42:11;100294.59;;;24.41
19568;BMP280;9930;49.240;8.548;2023-07-31T07:44:37;100293.56;;;24.48
19568;BMP280;9930;49.240;8.548;2023-07-31T07:47:04;100297.75;;;24.55
19568;BMP280;9930;49.240;8.548;2023-07-31T07:49:32;100297.63;;;24.61
19568;BMP280;9930;49.240;8.548;2023-07-31T07:51:58;100294.03;;;24.67
19568;BMP280;9930;49.240;8.548;2023-07-31T07:54:23;100293.88;;;24.73
19568;BMP280;9930;49.240;8.548;2023-07-31T07:56:49;100292.03;;;24.78
19568;BMP280;9930;49.240;8.548;2023-07-31T07:59:15;100287.69;;;24.78
19568;BMP280;9930;49.240;8.548;2023-07-31T08:01:44;100291.81;;;24.87
19568;BMP280;9930;49.240;8.548;2023-07-31T08:04:10;100299.59;;;24.90
19568;BMP280;9930;49.240;8.548;2023-07-31T08:06:38;100287.44;;;24.89
19568;BMP280;9930;49.240;8.548;2023-07-31T08:09:06;100299.44;;;24.96
19568;BMP280;9930;49.240;8.548;2023-07-31T08:11:33;100296.72;;;25.02
19568;BMP280;9930;49.240;8.548;2023-07-31T08:13:58;100291.44;;;25.05
19568;BMP280;9930;49.240;8.548;2023-07-31T08:16:29;100290.44;;;25.11
19568;BMP280;9930;49.240;8.548;2023-07-31T08:18:54;100291.19;;;25.16
19568;BMP280;9930;49.240;8.548;2023-07-31T08:21:23;100285.06;;;25.17
19568;BMP280;9930;49.240;8.548;2023-07-31T08:23:51;100284.94;;;25.22
19568;BMP280;9930;49.240;8.548;2023-07-31T08:26:18;100262.28;;;25.24
19568;BMP280;9930;49.240;8.548;2023-07-31T08:28:47;100275.88;;;25.36
19568;BMP280;9930;49.240;8.548;2023-07-31T08:31:15;100277.47;;;25.42
19568;BMP280;9930;49.240;8.548;2023-07-31T08:33:41;100262.50;;;25.48
19568;BMP280;9930;49.240;8.548;2023-07-31T08:36:11;100269.00;;;25.68
19568;BMP280;9930;49.240;8.548;2023-07-31T08:38:37;100256.47;;;25.80
19568;BMP280;9930;49.240;8.548;2023-07-31T08:41:03;100254.09;;;26.01
19568;BMP280;9930;49.240;8.548;2023-07-31T08:43:30;100240.59;;;26.16
19568;BMP280;9930;49.240;8.548;2023-07-31T08:45:57;100235.56;;;26.39
19568;BMP280;9930;49.240;8.548;2023-07-31T08:48:23;100226.22;;;26.60
19568;BMP280;9930;49.240;8.548;2023-07-31T08:50:54;100234.34;;;26.79
19568;BMP280;9930;49.240;8.548;2023-07-31T08:53:23;100223.59;;;26.88
19568;BMP280;9930;49.240;8.548;2023-07-31T08:55:51;100239.63;;;27.05
19568;BMP280;9930;49.240;8.548;2023-07-31T08:58:19;100225.31;;;27.16
19568;BMP280;9930;49.240;8.548;2023-07-31T09:00:51;100224.97;;;27.26
19568;BMP280;9930;49.240;8.548;2023-07-31T09:03:21;100221.97;;;27.37
19568;BMP280;9930;49.240;8.548;2023-07-31T09:05:49;100208.56;;;27.46
19568;BMP280;9930;49.240;8.548;2023-07-31T09:08:21;100215.06;;;27.59
19568;BMP280;9930;49.240;8.548;2023-07-31T09:10:50;100202.63;;;27.66
19568;BMP280;9930;49.240;8.548;2023-07-31T09:13:18;100198.72;;;27.78
19568;BMP280;9930;49.240;8.548;2023-07-31T09:15:46;100195.06;;;27.82
19568;BMP280;9930;49.240;8.548;2023-07-31T09:18:13;100185.66;;;27.76
19568;BMP280;9930;49.240;8.548;2023-07-31T09:20:44;100188.00;;;27.84
19568;BMP280;9930;49.240;8.548;2023-07-31T09:23:13;100173.38;;;27.78
19568;BMP280;9930;49.240;8.548;2023-07-31T09:25:46;100179.13;;;27.88
19568;BMP280;9930;49.240;8.548;2023-07-31T09:28:14;100191.13;;;27.93
19568;BMP280;9930;49.240;8.548;2023-07-31T09:30:50;100179.91;;;27.90
19568;BMP280;9930;49.240;8.548;2023-07-31T09:33:19;100177.34;;;27.88
19568;BMP280;9930;49.240;8.548;2023-07-31T09:35:46;100179.69;;;27.96
19568;BMP280;9930;49.240;8.548;2023-07-31T09:38:15;100175.28;;;27.96
19568;BMP280;9930;49.240;8.548;2023-07-31T09:40:44;100181.16;;;28.03
19568;BMP280;9930;49.240;8.548;2023-07-31T09:43:18;100173.13;;;28.08
19568;BMP280;9930;49.240;8.548;2023-07-31T09:45:55;100166.06;;;28.10
19568;BMP280;9930;49.240;8.548;2023-07-31T09:48:24;100161.78;;;28.07
19568;BMP280;9930;49.240;8.548;2023-07-31T09:50:53;100152.44;;;28.00
19568;BMP280;9930;49.240;8.548;2023-07-31T09:53:28;100152.31;;;28.03
19568;BMP280;9930;49.240;8.548;2023-07-31T09:56:01;100157.28;;;28.11
19568;BMP280;9930;49.240;8.548;2023-07-31T09:58:32;100158.59;;;28.22
19568;BMP280;9930;49.240;8.548;2023-07-31T10:01:01;100149.75;;;28.25
19568;BMP280;9930;49.240;8.548;2023-07-31T10:03:29;100156.34;;;28.35
19568;BMP280;9930;49.240;8.548;2023-07-31T10:06:00;100140.53;;;28.36
19568;BMP280;9930;49.240;8.548;2023-07-31T10:08:32;100150.34;;;28.53
19568;BMP280;9930;49.240;8.548;2023-07-31T10:11:02;100156.03;;;28.64
19568;BMP280;9930;49.240;8.548;2023-07-31T10:13:34;100152.88;;;28.77
19568;BMP280;9930;49.240;8.548;2023-07-31T10:16:00;100162.91;;;28.89
19568;BMP280;9930;49.240;8.548;2023-07-31T10:18:27;100147.69;;;28.97
19568;BMP280;9930;49.240;8.548;2023-07-31T10:20:54;100148.41;;;29.00
19568;BMP280;9930;49.240;8.548;2023-07-31T10:23:22;100140.53;;;29.00
19568;BMP280;9930;49.240;8.548;2023-07-31T10:25:53;100151.50;;;29.10
19568;BMP280;9930;49.240;8.548;2023-07-31T10:28:23;100151.25;;;29.16
19568;BMP280;9930;49.240;8.548;2023-07-31T10:30:51;100153.66;;;29.21
19568;BMP280;9930;49.240;8.548;2023-07-31T10:33:20;100142.25;;;29.22
19568;BMP280;9930;49.240;8.548;2023-07-31T10:35:49;100154.31;;;29.26
19568;BMP280;9930;49.240;8.548;2023-07-31T10:38:19;100155.16;;;29.26
19568;BMP280;9930;49.240;8.548;2023-07-31T10:40:46;100154.38;;;29.24
19568;BMP280;9930;49.240;8.548;2023-07-31T10:43:38;100134.69;;;29.14
19568;BMP280;9930;49.240;8.548;2023-07-31T10:46:14;100135.81;;;29.09
19568;BMP280;9930;49.240;8.548;2023-07-31T10:48:41;100141.13;;;29.07
19568;BMP280;9930;49.240;8.548;2023-07-31T10:51:11;100124.91;;;28.97
19568;BMP280;9930;49.240;8.548;2023-07-31T10:53:44;100135.41;;;28.97
19568;BMP280;9930;49.240;8.548;2023-07-31T10:56:10;100141.59;;;28.96
19568;BMP280;9930;49.240;8.548;2023-07-31T10:59:01;100137.97;;;28.99
19568;BMP280;9930;49.240;8.548;2023-07-31T11:01:55;100138.25;;;28.93
19568;BMP280;9930;49.240;8.548;2023-07-31T11:04:29;100134.50;;;28.98
19568;BMP280;9930;49.240;8.548;2023-07-31T11:07:01;100128.47;;;28.96
19568;BMP280;9930;49.240;8.548;2023-07-31T11:09:33;100112.19;;;28.88
19568;BMP280;9930;49.240;8.548;2023-07-31T11:12:01;100107.78;;;28.89
19568;BMP280;9930;49.240;8.548;2023-07-31T11:14:27;100103.50;;;28.86
19568;BMP280;9930;49.240;8.548;2023-07-31T11:16:53;100107.84;;;28.87
19568;BMP280;9930;49.240;8.548;2023-07-31T11:19:25;100107.06;;;28.85
19568;BMP280;9930;49.240;8.548;2023-07-31T11:21:56;100106.28;;;28.83
19568;BMP280;9930;49.240;8.548;2023-07-31T11:24:22;100101.03;;;28.83
19568;BMP280;9930;49.240;8.548;2023-07-31T11:26:54;100102.59;;;28.87
19568;BMP280;9930;49.240;8.548;2023-07-31T11:29:20;100099.91;;;28.89
19568;BMP280;9930;49.240;8.548;2023-07-31T11:31:51;100099.06;;;28.88
19568;BMP280;9930;49.240;8.548;2023-07-31T11:34:19;100091.25;;;28.87
19568;BMP280;9930;49.240;8.548;2023-07-31T11:36:55;100090.38;;;28.86
19568;BMP280;9930;49.240;8.548;2023-07-31T11:39:21;100093.25;;;28.80
19568;BMP280;9930;49.240;8.548;2023-07-31T11:41:47;100085.31;;;28.82
19568;BMP280;9930;49.240;8.548;2023-07-31T11:44:14;100082.94;;;28.76
19568;BMP280;9930;49.240;8.548;2023-07-31T11:46:44;100069.94;;;28.73
19568;BMP280;9930;49.240;8.548;2023-07-31T11:49:14;100079.47;;;28.75
19568;BMP280;9930;49.240;8.548;2023-07-31T11:51:43;100080.91;;;28.82
19568;BMP280;9930;49.240;8.548;2023-07-31T11:54:10;100066.84;;;28.85
19568;BMP280;9930;49.240;8.548;2023-07-31T11:56:40;100072.81;;;28.88
19568;BMP280;9930;49.240;8.548;2023-07-31T11:59:05;100074.38;;;28.92
19568;BMP280;9930;49.240;8.548;2023-07-31T12:01:33;100051.72;;;28.90
19568;BMP280;9930;49.240;8.548;2023-07-31T12:04:00;100056.06;;;28.91
19568;BMP280;9930;49.240;8.548;2023-07-31T12:06:36;100065.50;;;28.95
19568;BMP280;9930;49.240;8.548;2023-07-31T12:09:07;100057.84;;;28.90
19568;BMP280;9930;49.240;8.548;2023-07-31T12:11:49;100043.31;;;28.82
19568;BMP280;9930;49.240;8.548;2023-07-31T12:14:27;100047.34;;;28.90
19568;BMP280;9930;49.240;8.548;2023-07-31T12:17:03;100031.44;;;28.93
19568;BMP280;9930;49.240;8.548;2023-07-31T12:19:30;100032.59;;;29.07
19568;BMP280;9930;49.240;8.548;2023-07-31T12:21:56;100034.97;;;29.13
19568;BMP280;9930;49.240;8.548;2023-07-31T12:24:23;100015.44;;;29.18
19568;BMP280;9930;49.240;8.548;2023-07-31T12:26:49;100034.06;;;29.32
19568;BMP280;9930;49.240;8.548;2023-07-31T12:29:15;100031.88;;;29.42
19568;BMP280;9930;49.240;8.548;2023-07-31T12:31:44;100023.66;;;29.50
19568;BMP280;9930;49.240;8.548;2023-07-31T12:34:18;100024.06;;;29.59
19568;BMP280;9930;49.240;8.548;2023-07-31T12:36:45;100028.91;;;29.69
19568;BMP280;9930;49.240;8.548;2023-07-31T12:39:16;100019.78;;;29.76
19568;BMP280;9930;49.240;8.548;2023-07-31T12:41:42;100028.72;;;29.90
19568;BMP280;9930;49.240;8.548;2023-07-31T12:44:07;100004.06;;;29.93
19568;BMP280;9930;49.240;8.548;2023-07-31T12:46:40;100006.19;;;30.04
19568;BMP280;9930;49.240;8.548;2023-07-31T12:49:08;100016.19;;;30.14
19568;BMP280;9930;49.240;8.548;2023-07-31T12:51:34;100008.69;;;30.24
19568;BMP280;9930;49.240;8.548;2023-07-31T12:54:00;100007.38;;;30.33
19568;BMP280;9930;49.240;8.548;2023-07-31T12:56:28;100008.69;;;30.41
19568;BMP280;9930;49.240;8.548;2023-07-31T12:58:56;100010.16;;;30.47
19568;BMP280;9930;49.240;8.548;2023-07-31T13:01:22;100006.69;;;30.46
19568;BMP280;9930;49.240;8.548;2023-07-31T13:03:50;99995.31;;;30.46
19568;BMP280;9930;49.240;8.548;2023-07-31T13:06:18;99991.91;;;30.44
19568;BMP280;9930;49.240;8.548;2023-07-31T13:08:45;99993.75;;;30.42
19568;BMP280;9930;49.240;8.548;2023-07-31T13:11:10;99984.63;;;30.32
19568;BMP280;9930;49.240;8.548;2023-07-31T13:13:38;99993.69;;;30.26
19568;BMP280;9930;49.240;8.548;2023-07-31T13:16:04;100000.19;;;30.19
19568;BMP280;9930;49.240;8.548;2023-07-31T13:18:32;99995.28;;;30.11
19568;BMP280;9930;49.240;8.548;2023-07-31T13:21:00;99989.75;;;29.98
19568;BMP280;9930;49.240;8.548;2023-07-31T13:23:28;99993.69;;;29.90
19568;BMP280;9930;49.240;8.548;2023-07-31T13:25:54;99982.91;;;29.77
19568;BMP280;9930;49.240;8.548;2023-07-31T13:28:20;99990.25;;;29.71
19568;BMP280;9930;49.240;8.548;2023-07-31T13:30:46;99991.53;;;29.62
19568;BMP280;9930;49.240;8.548;2023-07-31T13:33:12;100000.63;;;29.55
19568;BMP280;9930;49.240;8.548;2023-07-31T13:35:37;99993.03;;;29.49
19568;BMP280;9930;49.240;8.548;2023-07-31T13:38:03;99988.94;;;29.43
19568;BMP280;9930;49.240;8.548;2023-07-31T13:40:29;99985.44;;;29.43
19568;BMP280;9930;49.240;8.548;2023-07-31T13:42:54;99977.69;;;29.40
19568;BMP280;9930;49.240;8.548;2023-07-31T13:45:26;99967.94;;;29.42
19568;BMP280;9930;49.240;8.548;2023-07-31T13:47:54;99966.06;;;29.45
19568;BMP280;9930;49.240;8.548;2023-07-31T13:50:20;99960.66;;;29.48
19568;BMP280;9930;49.240;8.548;2023-07-31T13:52:50;99969.97;;;29.55
19568;BMP280;9930;49.240;8.548;2023-07-31T13:55:15;99951.72;;;29.52
19568;BMP280;9930;49.240;8.548;2023-07-31T13:57:41;99954.03;;;29.58
19568;BMP280;9930;49.240;8.548;2023-07-31T14:00:08;99960.63;;;29.67
19568;BMP280;9930;49.240;8.548;2023-07-31T14:02:33;99963.19;;;29.69
19568;BMP280;9930;49.240;8.548;2023-07-31T14:04:59;99958.78;;;29.69
19568;BMP280;9930;49.240;8.548;2023-07-31T14:07:25;99970.38;;;29.65
19568;BMP280;9930;49.240;8.548;2023-07-31T14:09:50;99958.75;;;29.52
19568;BMP280;9930;49.240;8.548;2023-07-31T14:12:16;99958.97;;;29.47
19568;BMP280;9930;49.240;8.548;2023-07-31T14:14:45;99970.38;;;29.46
19568;BMP280;9930;49.240;8.548;2023-07-31T14:17:16;99962.84;;;29.39
19568;BMP280;9930;49.240;8.548;2023-07-31T14:19:44;99960.56;;;29.31
19568;BMP280;9930;49.240;8.548;2023-07-31T14:22:10;99952.06;;;29.26
19568;BMP280;9930;49.240;8.548;2023-07-31T14:24:36;99956.53;;;29.24